Time;durP1;ratioP1;P1;durP2;ratioP2;P2;SDS_P1;SDS_P2;PMS_P1;PMS_P2;Temp;Humidity;BMP_temperature;BMP_pressure;BME280_temperature;BME280_humidity;BME280_pressure;Samples;Min_cycle;Max_cycle;Signal;HPM_P1;HPM_P2
2021/08/27 11:01:28;;;;;;;6.45;2.90;;;20.90;99.90;;;;;;6139503;22;20032;-80
2021/08/27 20:50:51;;;;;;;4.63;2.90;;;15.70;99.90;;;;;;6038733;23;20556;-81
2021/08/27 21:29:57;;;;;;;8.43;3.40;;;15.00;99.90;;;;;;6072284;22;2124764;-82
2021/08/27 21:32:45;;;;;;;8.35;3.53;;;15.00;99.90;;;;;;6176482;23;20032;-80
2021/08/27 21:35:20;;;;;;;8.68;3.38;;;15.00;99.90;;;;;;6163166;23;20021;-81
2021/08/27 21:37:50;;;;;;;11.10;3.70;;;14.90;99.90;;;;;;6150609;23;20048;-80
2021/08/27 21:40:20;;;;;;;7.78;3.20;;;14.90;99.90;;;;;;6158167;23;20338;-81
2021/08/27 21:42:49;;;;;;;9.00;3.42;;;14.90;99.90;;;;;;6169189;23;20071;-81
2021/08/27 21:45:41;;;;;;;8.05;3.50;;;14.80;99.90;;;;;;6140800;23;20016;-80
2021/08/27 21:48:19;;;;;;;7.88;3.55;;;14.80;99.90;;;;;;6160028;23;20329;-81
2021/08/27 21:50:49;;;;;;;9.52;3.75;;;14.80;99.90;;;;;;6149534;23;20050;-81
2021/08/27 21:53:22;;;;;;;8.23;3.38;;;14.70;99.90;;;;;;6150753;23;20059;-81
2021/08/27 21:55:51;;;;;;;12.30;4.10;;;14.70;99.90;;;;;;6171252;23;20370;-82
2021/08/27 21:58:28;;;;;;;10.98;3.70;;;14.70;99.90;;;;;;6174454;23;20025;-82
2021/08/27 22:01:18;;;;;;;13.18;3.90;;;14.70;99.90;;;;;;6141532;23;20069;-82
2021/08/27 22:03:58;;;;;;;11.13;4.45;;;14.70;99.90;;;;;;6155725;23;20013;-81
2021/08/27 22:06:38;;;;;;;9.77;3.72;;;14.60;99.90;;;;;;6137304;23;20017;-79
2021/08/27 22:09:10;;;;;;;9.00;4.20;;;14.60;99.90;;;;;;6188848;23;20072;-80
2021/08/27 22:11:38;;;;;;;11.95;4.28;;;14.60;99.90;;;;;;6155414;23;20017;-82
2021/08/27 22:14:24;;;;;;;;;;;;;;;;;;;;;
2021/08/27 22:17:10;;;;;;;7.05;3.97;;;14.60;99.90;;;;;;6177809;23;20016;-82
2021/08/27 22:20:07;;;;;;;10.82;4.03;;;14.50;99.90;;;;;;6170325;23;20024;-82
2021/08/27 22:25:47;;;;;;;10.40;4.30;;;14.50;99.90;;;;;;6099519;23;20045;-83
2021/08/27 22:28:47;;;;;;;12.07;4.60;;;14.50;99.90;;;;;;6112115;23;20025;-81
2021/08/27 22:31:38;;;;;;;;;;;;;;;;;;;;;
2021/08/27 22:34:07;;;;;;;13.73;4.85;;;14.40;99.90;;;;;;6084490;23;20018;-82
2021/08/27 22:36:58;;;;;;;12.05;4.57;;;14.40;99.90;;;;;;6052569;23;20380;-81
2021/08/27 22:39:48;;;;;;;13.50;5.03;;;14.40;99.90;;;;;;6051616;23;20019;-81
2021/08/27 22:42:51;;;;;;;13.45;5.43;;;14.40;99.90;;;;;;5977381;23;20024;-82
2021/08/27 23:15:46;;;;;;;;;;;;;;;;;;;;;
2021/08/27 23:18:51;;;;;;;;;;;;;;;;;;;;;
2021/08/27 23:21:49;;;;;;;17.20;7.25;;;14.20;99.90;;;;;;6142521;23;20028;-82
2021/08/27 23:24:21;;;;;;;17.48;7.53;;;14.20;99.90;;;;;;6196043;23;20020;-82
2021/08/27 23:27:12;;;;;;;19.17;6.88;;;14.20;99.90;;;;;;6239594;22;20043;-82
2021/08/27 23:29:55;;;;;;;18.33;7.78;;;14.20;99.90;;;;;;6228532;22;20027;-82
2021/08/27 23:36:01;;;;;;;;;;;;;;;;;;;;;
2021/08/27 23:39:07;;;;;;;20.30;7.13;;;14.20;99.90;;;;;;6148515;23;20021;-81
2021/08/27 23:42:21;;;;;;;;;;;;;;;;;;;;;
2021/08/27 23:45:19;;;;;;;22.50;6.85;;;14.20;99.90;;;;;;6046762;23;20030;-82
2021/08/27 23:47:58;;;;;;;16.83;6.80;;;14.20;99.90;;;;;;6025999;23;20056;-82
2021/08/27 23:50:49;;;;;;;21.55;7.90;;;14.20;99.90;;;;;;5922410;23;20189;-82
2021/08/27 23:53:46;;;;;;;15.77;7.78;;;14.20;99.90;;;;;;5913933;23;20121;-82
2021/08/27 23:56:44;;;;;;;19.05;6.80;;;14.20;99.90;;;;;;5896829;24;20667;-80
2021/08/27 23:59:25;;;;;;;14.73;7.68;;;14.20;99.90;;;;;;5974672;23;20019;-80
